sensor_id;sensor_type;location;lat;lon;timestamp;temperature;humidity
16627;DHT22;8427;52.204;7.202;2022-08-02T00:00:32;12.20;99.90
16627;DHT22;8427;52.204;7.202;2022-08-02T00:03:00;12.20;99.90
16627;DHT22;8427;52.204;7.202;2022-08-02T00:05:28;12.20;99.90
16627;DHT22;8427;52.204;7.202;2022-08-02T00:07:56;12.20;99.90
16627;DHT22;8427;52.204;7.202;2022-08-02T00:10:26;12.20;99.90
16627;DHT22;8427;52.204;7.202;2022-08-02T00:12:56;12.10;99.90
16627;DHT22;8427;52.204;7.202;2022-08-02T00:15:24;12.10;99.90
16627;DHT22;8427;52.204;7.202;2022-08-02T00:17:52;12.00;99.90
16627;DHT22;8427;52.204;7.202;2022-08-02T00:20:21;12.00;99.90
16627;DHT22;8427;52.204;7.202;2022-08-02T00:22:49;12.00;99.90
16627;DHT22;8427;52.204;7.202;2022-08-02T00:25:17;12.00;99.90
16627;DHT22;8427;52.204;7.202;2022-08-02T00:27:46;11.90;99.90
16627;DHT22;8427;52.204;7.202;2022-08-02T00:30:14;11.90;99.90
16627;DHT22;8427;52.204;7.202;2022-08-02T00:32:42;11.90;99.90
16627;DHT22;8427;52.204;7.202;2022-08-02T00:35:10;11.90;99.90
16627;DHT22;8427;52.204;7.202;2022-08-02T00:37:39;11.90;99.90
16627;DHT22;8427;52.204;7.202;2022-08-02T00:40:08;11.90;99.90
16627;DHT22;8427;52.204;7.202;2022-08-02T00:42:36;11.90;99.90
16627;DHT22;8427;52.204;7.202;2022-08-02T00:45:07;11.90;99.90
16627;DHT22;8427;52.204;7.202;2022-08-02T00:47:35;12.00;99.90
16627;DHT22;8427;52.204;7.202;2022-08-02T00:50:04;12.00;99.90
16627;DHT22;8427;52.204;7.202;2022-08-02T00:52:32;12.00;99.90
16627;DHT22;8427;52.204;7.202;2022-08-02T00:55:00;12.00;99.90
16627;DHT22;8427;52.204;7.202;2022-08-02T00:57:28;12.00;99.90
16627;DHT22;8427;52.204;7.202;2022-08-02T00:59:56;12.10;99.90
16627;DHT22;8427;52.204;7.202;2022-08-02T01:02:25;12.10;99.90
16627;DHT22;8427;52.204;7.202;2022-08-02T01:04:54;12.00;99.90
16627;DHT22;8427;52.204;7.202;2022-08-02T01:07:22;12.00;99.90
16627;DHT22;8427;52.204;7.202;2022-08-02T01:09:50;12.00;99.90
16627;DHT22;8427;52.204;7.202;2022-08-02T01:12:18;12.00;99.90
16627;DHT22;8427;52.204;7.202;2022-08-02T01:14:48;12.10;99.90
16627;DHT22;8427;52.204;7.202;2022-08-02T01:17:19;12.10;99.90
16627;DHT22;8427;52.204;7.202;2022-08-02T01:19:56;12.10;99.90
16627;DHT22;8427;52.204;7.202;2022-08-02T01:22:44;12.10;99.90
16627;DHT22;8427;52.204;7.202;2022-08-02T01:25:52;12.10;99.90
16627;DHT22;8427;52.204;7.202;2022-08-02T01:28:35;12.10;99.90
16627;DHT22;8427;52.204;7.202;2022-08-02T01:31:09;12.10;99.90
16627;DHT22;8427;52.204;7.202;2022-08-02T01:33:43;12.10;99.90
16627;DHT22;8427;52.204;7.202;2022-08-02T01:36:13;12.00;99.90
16627;DHT22;8427;52.204;7.202;2022-08-02T01:38:48;11.90;99.90
16627;DHT22;8427;52.204;7.202;2022-08-02T01:41:18;11.90;99.90
16627;DHT22;8427;52.204;7.202;2022-08-02T01:43:52;11.90;99.90
16627;DHT22;8427;52.204;7.202;2022-08-02T01:46:23;11.80;99.90
16627;DHT22;8427;52.204;7.202;2022-08-02T01:48:53;11.80;99.90
16627;DHT22;8427;52.204;7.202;2022-08-02T01:51:24;11.70;99.90
16627;DHT22;8427;52.204;7.202;2022-08-02T01:54:11;11.70;99.90
16627;DHT22;8427;52.204;7.202;2022-08-02T01:56:42;11.70;99.90
16627;DHT22;8427;52.204;7.202;2022-08-02T01:59:16;11.60;99.90
16627;DHT22;8427;52.204;7.202;2022-08-02T02:01:47;11.50;99.90
16627;DHT22;8427;52.204;7.202;2022-08-02T02:04:16;11.40;99.90
16627;DHT22;8427;52.204;7.202;2022-08-02T02:06:46;11.40;99.90
16627;DHT22;8427;52.204;7.202;2022-08-02T02:09:16;11.30;99.90
16627;DHT22;8427;52.204;7.202;2022-08-02T02:11:46;11.30;99.90
16627;DHT22;8427;52.204;7.202;2022-08-02T02:14:37;11.30;99.90
16627;DHT22;8427;52.204;7.202;2022-08-02T02:17:07;11.20;99.90
16627;DHT22;8427;52.204;7.202;2022-08-02T02:19:59;11.20;99.90
16627;DHT22;8427;52.204;7.202;2022-08-02T02:22:28;11.20;99.90
16627;DHT22;8427;52.204;7.202;2022-08-02T02:24:57;11.20;99.90
16627;DHT22;8427;52.204;7.202;2022-08-02T02:27:26;11.10;99.90
16627;DHT22;8427;52.204;7.202;2022-08-02T02:29:56;11.10;99.90
16627;DHT22;8427;52.204;7.202;2022-08-02T02:32:26;11.10;99.90
16627;DHT22;8427;52.204;7.202;2022-08-02T02:34:55;11.10;99.90
16627;DHT22;8427;52.204;7.202;2022-08-02T02:37:26;11.00;99.90
16627;DHT22;8427;52.204;7.202;2022-08-02T02:39:56;11.00;99.90
16627;DHT22;8427;52.204;7.202;2022-08-02T02:42:28;11.00;99.90
16627;DHT22;8427;52.204;7.202;2022-08-02T02:44:59;11.00;99.90
16627;DHT22;8427;52.204;7.202;2022-08-02T02:47:28;11.00;99.90
16627;DHT22;8427;52.204;7.202;2022-08-02T02:50:08;10.90;99.90
16627;DHT22;8427;52.204;7.202;2022-08-02T02:52:37;10.90;99.90
16627;DHT22;8427;52.204;7.202;2022-08-02T02:55:08;10.90;99.90
16627;DHT22;8427;52.204;7.202;2022-08-02T02:57:37;10.80;99.90
16627;DHT22;8427;52.204;7.202;2022-08-02T03:00:08;10.80;99.90
16627;DHT22;8427;52.204;7.202;2022-08-02T03:02:38;10.80;99.90
16627;DHT22;8427;52.204;7.202;2022-08-02T03:05:08;10.80;99.90
16627;DHT22;8427;52.204;7.202;2022-08-02T03:07:37;10.80;99.90
16627;DHT22;8427;52.204;7.202;2022-08-02T03:10:06;10.70;99.90
16627;DHT22;8427;52.204;7.202;2022-08-02T03:12:35;10.60;99.90
16627;DHT22;8427;52.204;7.202;2022-08-02T03:15:05;10.50;99.90
16627;DHT22;8427;52.204;7.202;2022-08-02T03:17:40;10.50;99.90
16627;DHT22;8427;52.204;7.202;2022-08-02T03:20:10;10.50;99.90
16627;DHT22;8427;52.204;7.202;2022-08-02T03:22:39;10.50;99.90
16627;DHT22;8427;52.204;7.202;2022-08-02T03:25:08;10.50;99.90
16627;DHT22;8427;52.204;7.202;2022-08-02T03:27:37;10.50;99.90
16627;DHT22;8427;52.204;7.202;2022-08-02T03:30:07;10.50;99.90
16627;DHT22;8427;52.204;7.202;2022-08-02T03:32:37;10.60;99.90
16627;DHT22;8427;52.204;7.202;2022-08-02T03:35:10;10.60;99.90
16627;DHT22;8427;52.204;7.202;2022-08-02T03:37:39;10.60;99.90
16627;DHT22;8427;52.204;7.202;2022-08-02T03:40:10;10.60;99.90
16627;DHT22;8427;52.204;7.202;2022-08-02T03:42:39;10.50;99.90
16627;DHT22;8427;52.204;7.202;2022-08-02T03:45:09;10.50;99.90
16627;DHT22;8427;52.204;7.202;2022-08-02T03:47:38;10.50;99.90
16627;DHT22;8427;52.204;7.202;2022-08-02T03:50:10;10.50;99.90
16627;DHT22;8427;52.204;7.202;2022-08-02T03:52:40;10.50;99.90
16627;DHT22;8427;52.204;7.202;2022-08-02T03:55:10;10.50;99.90
16627;DHT22;8427;52.204;7.202;2022-08-02T03:57:38;10.50;99.90
16627;DHT22;8427;52.204;7.202;2022-08-02T04:00:08;10.50;99.90
16627;DHT22;8427;52.204;7.202;2022-08-02T04:02:37;10.60;99.90
16627;DHT22;8427;52.204;7.202;2022-08-02T04:05:06;10.60;99.90
16627;DHT22;8427;52.204;7.202;2022-08-02T04:07:35;10.60;99.90
16627;DHT22;8427;52.204;7.202;2022-08-02T04:10:24;10.60;99.90
16627;DHT22;8427;52.204;7.202;2022-08-02T04:12:53;10.60;99.90
16627;DHT22;8427;52.204;7.202;2022-08-02T04:15:22;10.70;99.90
16627;DHT22;8427;52.204;7.202;2022-08-02T04:17:53;10.70;99.90
16627;DHT22;8427;52.204;7.202;2022-08-02T04:20:27;10.80;99.90
16627;DHT22;8427;52.204;7.202;2022-08-02T04:23:01;10.80;99.90
16627;DHT22;8427;52.204;7.202;2022-08-02T04:25:31;10.90;99.90
16627;DHT22;8427;52.204;7.202;2022-08-02T04:28:06;11.00;99.90
16627;DHT22;8427;52.204;7.202;2022-08-02T04:30:44;11.00;99.90
16627;DHT22;8427;52.204;7.202;2022-08-02T04:33:13;11.00;99.90
16627;DHT22;8427;52.204;7.202;2022-08-02T04:35:42;11.10;99.90
16627;DHT22;8427;52.204;7.202;2022-08-02T04:38:11;11.20;99.90
16627;DHT22;8427;52.204;7.202;2022-08-02T04:40:40;11.20;99.90
16627;DHT22;8427;52.204;7.202;2022-08-02T04:43:16;11.30;99.90
16627;DHT22;8427;52.204;7.202;2022-08-02T04:45:46;11.30;99.90
16627;DHT22;8427;52.204;7.202;2022-08-02T04:48:18;11.40;99.90
16627;DHT22;8427;52.204;7.202;2022-08-02T04:50:46;11.50;99.90
16627;DHT22;8427;52.204;7.202;2022-08-02T04:53:15;11.50;99.90
16627;DHT22;8427;52.204;7.202;2022-08-02T04:55:44;11.70;99.90
16627;DHT22;8427;52.204;7.202;2022-08-02T04:58:12;11.90;99.90
16627;DHT22;8427;52.204;7.202;2022-08-02T05:01:00;12.10;99.90
16627;DHT22;8427;52.204;7.202;2022-08-02T05:03:28;12.40;99.90
16627;DHT22;8427;52.204;7.202;2022-08-02T05:05:56;12.60;99.90
16627;DHT22;8427;52.204;7.202;2022-08-02T05:08:27;12.80;99.90
16627;DHT22;8427;52.204;7.202;2022-08-02T05:10:55;12.90;99.90
16627;DHT22;8427;52.204;7.202;2022-08-02T05:13:24;13.00;99.90
16627;DHT22;8427;52.204;7.202;2022-08-02T05:15:52;13.00;99.90
16627;DHT22;8427;52.204;7.202;2022-08-02T05:18:20;13.10;99.90
16627;DHT22;8427;52.204;7.202;2022-08-02T05:20:48;13.20;99.90
16627;DHT22;8427;52.204;7.202;2022-08-02T05:23:22;13.30;99.90
16627;DHT22;8427;52.204;7.202;2022-08-02T05:25:51;13.40;99.90
16627;DHT22;8427;52.204;7.202;2022-08-02T05:28:20;13.60;99.90
16627;DHT22;8427;52.204;7.202;2022-08-02T05:30:48;13.80;99.90
16627;DHT22;8427;52.204;7.202;2022-08-02T05:33:16;14.00;99.90
16627;DHT22;8427;52.204;7.202;2022-08-02T05:35:44;14.10;99.90
16627;DHT22;8427;52.204;7.202;2022-08-02T05:38:13;14.10;99.90
16627;DHT22;8427;52.204;7.202;2022-08-02T05:40:41;14.00;99.90
16627;DHT22;8427;52.204;7.202;2022-08-02T05:43:22;14.00;99.90
16627;DHT22;8427;52.204;7.202;2022-08-02T05:45:50;14.10;99.90
16627;DHT22;8427;52.204;7.202;2022-08-02T05:48:20;14.20;99.90
16627;DHT22;8427;52.204;7.202;2022-08-02T05:51:01;14.30;99.90
16627;DHT22;8427;52.204;7.202;2022-08-02T05:53:36;14.40;99.90
16627;DHT22;8427;52.204;7.202;2022-08-02T05:56:12;14.50;99.90
16627;DHT22;8427;52.204;7.202;2022-08-02T05:58:49;14.60;99.90
16627;DHT22;8427;52.204;7.202;2022-08-02T06:01:26;14.80;99.90
16627;DHT22;8427;52.204;7.202;2022-08-02T06:03:56;14.90;99.90
16627;DHT22;8427;52.204;7.202;2022-08-02T06:06:28;14.90;99.90
16627;DHT22;8427;52.204;7.202;2022-08-02T06:09:02;15.10;99.90
16627;DHT22;8427;52.204;7.202;2022-08-02T06:11:35;15.20;99.90
16627;DHT22;8427;52.204;7.202;2022-08-02T06:14:06;15.40;99.90
16627;DHT22;8427;52.204;7.202;2022-08-02T06:16:35;15.60;99.90
16627;DHT22;8427;52.204;7.202;2022-08-02T06:19:10;15.70;99.90
16627;DHT22;8427;52.204;7.202;2022-08-02T06:21:40;15.90;99.90
16627;DHT22;8427;52.204;7.202;2022-08-02T06:24:29;16.00;99.90
16627;DHT22;8427;52.204;7.202;2022-08-02T06:27:01;16.10;99.90
16627;DHT22;8427;52.204;7.202;2022-08-02T06:29:33;16.20;99.90
16627;DHT22;8427;52.204;7.202;2022-08-02T06:32:06;16.40;99.90
16627;DHT22;8427;52.204;7.202;2022-08-02T06:34:36;16.50;99.90
16627;DHT22;8427;52.204;7.202;2022-08-02T06:37:11;16.60;99.90
16627;DHT22;8427;52.204;7.202;2022-08-02T06:39:44;16.80;99.90
16627;DHT22;8427;52.204;7.202;2022-08-02T06:42:25;16.90;99.90
16627;DHT22;8427;52.204;7.202;2022-08-02T06:44:59;17.10;99.90
16627;DHT22;8427;52.204;7.202;2022-08-02T06:47:27;17.30;99.90
16627;DHT22;8427;52.204;7.202;2022-08-02T06:49:55;17.50;99.90
16627;DHT22;8427;52.204;7.202;2022-08-02T06:52:26;17.70;99.90
16627;DHT22;8427;52.204;7.202;2022-08-02T06:54:57;17.90;99.90
16627;DHT22;8427;52.204;7.202;2022-08-02T06:57:26;18.00;99.90
16627;DHT22;8427;52.204;7.202;2022-08-02T06:59:54;18.20;99.90
16627;DHT22;8427;52.204;7.202;2022-08-02T07:02:24;18.30;99.90
16627;DHT22;8427;52.204;7.202;2022-08-02T07:04:53;18.40;99.90
16627;DHT22;8427;52.204;7.202;2022-08-02T07:07:22;18.60;99.90
16627;DHT22;8427;52.204;7.202;2022-08-02T07:09:52;18.80;99.90
16627;DHT22;8427;52.204;7.202;2022-08-02T07:12:27;18.90;99.90
16627;DHT22;8427;52.204;7.202;2022-08-02T07:14:56;19.10;99.90
16627;DHT22;8427;52.204;7.202;2022-08-02T07:17:27;19.30;99.90
16627;DHT22;8427;52.204;7.202;2022-08-02T07:19:55;19.30;99.90
16627;DHT22;8427;52.204;7.202;2022-08-02T07:22:25;19.60;99.90
16627;DHT22;8427;52.204;7.202;2022-08-02T07:24:55;19.70;99.90
16627;DHT22;8427;52.204;7.202;2022-08-02T07:27:24;19.80;99.90
16627;DHT22;8427;52.204;7.202;2022-08-02T07:29:53;20.00;99.90
16627;DHT22;8427;52.204;7.202;2022-08-02T07:32:23;20.10;99.90
16627;DHT22;8427;52.204;7.202;2022-08-02T07:34:53;20.30;99.90
16627;DHT22;8427;52.204;7.202;2022-08-02T07:37:23;20.40;99.90
16627;DHT22;8427;52.204;7.202;2022-08-02T07:40:12;20.40;99.90
16627;DHT22;8427;52.204;7.202;2022-08-02T07:42:47;20.50;99.90
16627;DHT22;8427;52.204;7.202;2022-08-02T07:45:18;20.60;99.90
16627;DHT22;8427;52.204;7.202;2022-08-02T07:47:46;20.70;99.90
16627;DHT22;8427;52.204;7.202;2022-08-02T07:50:17;20.80;99.90
16627;DHT22;8427;52.204;7.202;2022-08-02T07:52:46;21.10;99.90
16627;DHT22;8427;52.204;7.202;2022-08-02T07:55:15;21.20;99.90
16627;DHT22;8427;52.204;7.202;2022-08-02T07:57:45;21.40;99.90
16627;DHT22;8427;52.204;7.202;2022-08-02T08:00:14;21.50;99.90
16627;DHT22;8427;52.204;7.202;2022-08-02T08:02:44;21.60;99.90
16627;DHT22;8427;52.204;7.202;2022-08-02T08:05:13;21.70;99.90
16627;DHT22;8427;52.204;7.202;2022-08-02T08:07:43;21.70;99.90
16627;DHT22;8427;52.204;7.202;2022-08-02T08:10:14;21.80;99.90
16627;DHT22;8427;52.204;7.202;2022-08-02T08:12:43;21.90;99.90
16627;DHT22;8427;52.204;7.202;2022-08-02T08:15:12;22.10;99.90
16627;DHT22;8427;52.204;7.202;2022-08-02T08:17:42;22.20;99.90
16627;DHT22;8427;52.204;7.202;2022-08-02T08:20:12;22.30;99.90
16627;DHT22;8427;52.204;7.202;2022-08-02T08:22:43;22.40;99.90
16627;DHT22;8427;52.204;7.202;2022-08-02T08:25:11;22.50;99.90
16627;DHT22;8427;52.204;7.202;2022-08-02T08:27:47;22.60;99.90
16627;DHT22;8427;52.204;7.202;2022-08-02T08:30:15;22.50;99.90
16627;DHT22;8427;52.204;7.202;2022-08-02T08:32:44;22.40;99.90
16627;DHT22;8427;52.204;7.202;2022-08-02T08:35:13;22.60;99.90
16627;DHT22;8427;52.204;7.202;2022-08-02T08:37:43;22.80;99.90
16627;DHT22;8427;52.204;7.202;2022-08-02T08:40:12;23.00;99.90
16627;DHT22;8427;52.204;7.202;2022-08-02T08:42:45;23.00;99.90
16627;DHT22;8427;52.204;7.202;2022-08-02T08:45:13;23.00;99.90
16627;DHT22;8427;52.204;7.202;2022-08-02T08:47:49;23.10;99.90
16627;DHT22;8427;52.204;7.202;2022-08-02T08:50:21;23.10;99.90
16627;DHT22;8427;52.204;7.202;2022-08-02T08:53:01;23.10;99.90
16627;DHT22;8427;52.204;7.202;2022-08-02T08:57:59;23.20;99.90
16627;DHT22;8427;52.204;7.202;2022-08-02T09:00:30;23.30;99.90
16627;DHT22;8427;52.204;7.202;2022-08-02T09:02:58;23.30;99.90
16627;DHT22;8427;52.204;7.202;2022-08-02T09:05:29;23.30;99.90
16627;DHT22;8427;52.204;7.202;2022-08-02T09:07:59;23.50;99.90
16627;DHT22;8427;52.204;7.202;2022-08-02T09:10:35;23.60;99.90
16627;DHT22;8427;52.204;7.202;2022-08-02T09:13:10;23.60;99.90
16627;DHT22;8427;52.204;7.202;2022-08-02T09:16:01;23.70;99.90
16627;DHT22;8427;52.204;7.202;2022-08-02T09:18:41;23.90;99.90
16627;DHT22;8427;52.204;7.202;2022-08-02T09:21:11;23.90;99.90
16627;DHT22;8427;52.204;7.202;2022-08-02T09:26:13;24.00;99.90
16627;DHT22;8427;52.204;7.202;2022-08-02T09:28:46;24.00;99.90
16627;DHT22;8427;52.204;7.202;2022-08-02T09:31:18;24.10;99.90
16627;DHT22;8427;52.204;7.202;2022-08-02T09:33:52;24.20;99.90
16627;DHT22;8427;52.204;7.202;2022-08-02T09:36:21;24.30;99.90
16627;DHT22;8427;52.204;7.202;2022-08-02T09:38:56;24.40;99.90
16627;DHT22;8427;52.204;7.202;2022-08-02T09:41:25;24.40;99.90
16627;DHT22;8427;52.204;7.202;2022-08-02T09:43:55;24.60;99.90
16627;DHT22;8427;52.204;7.202;2022-08-02T09:46:33;24.70;99.90
16627;DHT22;8427;52.204;7.202;2022-08-02T09:49:06;24.80;99.90
16627;DHT22;8427;52.204;7.202;2022-08-02T09:51:36;24.90;99.90
16627;DHT22;8427;52.204;7.202;2022-08-02T09:54:07;24.90;99.90
16627;DHT22;8427;52.204;7.202;2022-08-02T09:56:45;25.00;99.90
16627;DHT22;8427;52.204;7.202;2022-08-02T09:59:14;25.10;99.90
16627;DHT22;8427;52.204;7.202;2022-08-02T10:01:44;25.20;99.90
16627;DHT22;8427;52.204;7.202;2022-08-02T10:04:26;25.20;99.90
16627;DHT22;8427;52.204;7.202;2022-08-02T10:06:56;25.10;99.90
16627;DHT22;8427;52.204;7.202;2022-08-02T10:09:32;25.10;99.90
16627;DHT22;8427;52.204;7.202;2022-08-02T10:12:00;25.20;99.90
16627;DHT22;8427;52.204;7.202;2022-08-02T10:14:34;25.30;99.90
16627;DHT22;8427;52.204;7.202;2022-08-02T10:17:03;25.30;99.90
16627;DHT22;8427;52.204;7.202;2022-08-02T10:19:32;25.30;99.90
16627;DHT22;8427;52.204;7.202;2022-08-02T10:22:21;25.30;99.90
16627;DHT22;8427;52.204;7.202;2022-08-02T10:24:52;25.30;99.90
16627;DHT22;8427;52.204;7.202;2022-08-02T10:27:22;25.40;99.90
16627;DHT22;8427;52.204;7.202;2022-08-02T10:29:54;25.60;99.90
16627;DHT22;8427;52.204;7.202;2022-08-02T10:32:27;25.80;99.90
16627;DHT22;8427;52.204;7.202;2022-08-02T10:34:59;25.90;99.90
16627;DHT22;8427;52.204;7.202;2022-08-02T10:37:52;26.10;99.90
16627;DHT22;8427;52.204;7.202;2022-08-02T10:40:22;26.20;99.90
16627;DHT22;8427;52.204;7.202;2022-08-02T10:42:54;26.20;99.90
16627;DHT22;8427;52.204;7.202;2022-08-02T10:45:27;26.30;99.90
16627;DHT22;8427;52.204;7.202;2022-08-02T10:48:00;26.30;99.90
16627;DHT22;8427;52.204;7.202;2022-08-02T10:50:53;26.50;99.90
16627;DHT22;8427;52.204;7.202;2022-08-02T10:53:26;26.90;99.90
16627;DHT22;8427;52.204;7.202;2022-08-02T10:55:57;27.10;99.90
16627;DHT22;8427;52.204;7.202;2022-08-02T10:58:28;27.20;99.90
16627;DHT22;8427;52.204;7.202;2022-08-02T11:01:04;27.30;99.90
16627;DHT22;8427;52.204;7.202;2022-08-02T11:03:35;27.50;99.90
16627;DHT22;8427;52.204;7.202;2022-08-02T11:06:08;27.60;99.90
16627;DHT22;8427;52.204;7.202;2022-08-02T11:09:24;27.50;99.90
16627;DHT22;8427;52.204;7.202;2022-08-02T11:12:04;27.30;99.90
16627;DHT22;8427;52.204;7.202;2022-08-02T11:14:33;27.20;99.90
16627;DHT22;8427;52.204;7.202;2022-08-02T11:17:13;27.30;99.90
16627;DHT22;8427;52.204;7.202;2022-08-02T11:20:15;27.50;99.90
16627;DHT22;8427;52.204;7.202;2022-08-02T11:22:45;27.50;99.90
16627;DHT22;8427;52.204;7.202;2022-08-02T11:25:29;27.50;99.90
16627;DHT22;8427;52.204;7.202;2022-08-02T11:28:19;27.30;99.90
16627;DHT22;8427;52.204;7.202;2022-08-02T11:30:56;27.30;99.90
16627;DHT22;8427;52.204;7.202;2022-08-02T11:33:29;27.30;99.90
16627;DHT22;8427;52.204;7.202;2022-08-02T11:36:00;27.00;99.90
16627;DHT22;8427;52.204;7.202;2022-08-02T11:38:29;26.80;99.90
16627;DHT22;8427;52.204;7.202;2022-08-02T11:40:57;26.80;99.90
16627;DHT22;8427;52.204;7.202;2022-08-02T11:43:34;26.90;99.90
16627;DHT22;8427;52.204;7.202;2022-08-02T11:46:04;26.90;99.90
16627;DHT22;8427;52.204;7.202;2022-08-02T11:48:40;27.20;99.90
16627;DHT22;8427;52.204;7.202;2022-08-02T11:51:12;27.10;99.90
16627;DHT22;8427;52.204;7.202;2022-08-02T11:53:42;27.00;99.90
16627;DHT22;8427;52.204;7.202;2022-08-02T11:56:11;27.20;99.90
16627;DHT22;8427;52.204;7.202;2022-08-02T11:59:09;27.10;99.90
16627;DHT22;8427;52.204;7.202;2022-08-02T12:01:40;27.10;99.90
16627;DHT22;8427;52.204;7.202;2022-08-02T12:04:16;27.10;99.90
16627;DHT22;8427;52.204;7.202;2022-08-02T12:06:53;27.10;99.90
16627;DHT22;8427;52.204;7.202;2022-08-02T12:09:22;27.20;99.90
16627;DHT22;8427;52.204;7.202;2022-08-02T12:11:50;27.50;99.90
16627;DHT22;8427;52.204;7.202;2022-08-02T12:14:20;27.70;99.90
16627;DHT22;8427;52.204;7.202;2022-08-02T12:16:49;27.70;99.90
16627;DHT22;8427;52.204;7.202;2022-08-02T12:19:36;27.90;99.90
16627;DHT22;8427;52.204;7.202;2022-08-02T12:22:12;27.90;99.90
16627;DHT22;8427;52.204;7.202;2022-08-02T12:24:44;27.90;99.90
16627;DHT22;8427;52.204;7.202;2022-08-02T12:27:33;27.80;99.90
16627;DHT22;8427;52.204;7.202;2022-08-02T12:30:06;27.70;99.90
16627;DHT22;8427;52.204;7.202;2022-08-02T12:32:35;27.70;99.90
16627;DHT22;8427;52.204;7.202;2022-08-02T12:35:07;27.80;99.90
16627;DHT22;8427;52.204;7.202;2022-08-02T12:37:37;27.70;99.90
16627;DHT22;8427;52.204;7.202;2022-08-02T12:40:23;27.60;99.90
16627;DHT22;8427;52.204;7.202;2022-08-02T12:42:54;27.50;99.90
16627;DHT22;8427;52.204;7.202;2022-08-02T12:45:25;27.50;99.90
16627;DHT22;8427;52.204;7.202;2022-08-02T12:48:07;27.50;99.90
16627;DHT22;8427;52.204;7.202;2022-08-02T12:50:35;27.70;99.90
16627;DHT22;8427;52.204;7.202;2022-08-02T12:53:06;27.70;99.90
16627;DHT22;8427;52.204;7.202;2022-08-02T12:55:35;27.80;99.90
16627;DHT22;8427;52.204;7.202;2022-08-02T12:58:27;27.70;99.90
16627;DHT22;8427;52.204;7.202;2022-08-02T13:00:57;27.90;99.90
16627;DHT22;8427;52.204;7.202;2022-08-02T13:03:26;27.80;99.90
16627;DHT22;8427;52.204;7.202;2022-08-02T13:06:14;27.70;99.90
16627;DHT22;8427;52.204;7.202;2022-08-02T13:09:11;27.80;99.90
16627;DHT22;8427;52.204;7.202;2022-08-02T13:11:40;27.70;99.90
16627;DHT22;8427;52.204;7.202;2022-08-02T13:14:10;27.70;99.90
16627;DHT22;8427;52.204;7.202;2022-08-02T13:16:39;27.70;99.90
16627;DHT22;8427;52.204;7.202;2022-08-02T13:19:08;27.70;99.90
16627;DHT22;8427;52.204;7.202;2022-08-02T13:21:36;27.80;99.90
16627;DHT22;8427;52.204;7.202;2022-08-02T13:24:24;28.00;99.90
16627;DHT22;8427;52.204;7.202;2022-08-02T13:27:07;28.10;99.90
16627;DHT22;8427;52.204;7.202;2022-08-02T13:29:35;28.20;99.90
16627;DHT22;8427;52.204;7.202;2022-08-02T13:32:05;28.10;99.90
16627;DHT22;8427;52.204;7.202;2022-08-02T13:34:33;28.20;99.90
16627;DHT22;8427;52.204;7.202;2022-08-02T13:37:02;28.10;99.90
16627;DHT22;8427;52.204;7.202;2022-08-02T13:39:31;28.10;99.90
16627;DHT22;8427;52.204;7.202;2022-08-02T13:41:59;28.10;99.90
16627;DHT22;8427;52.204;7.202;2022-08-02T13:44:27;28.30;99.90
16627;DHT22;8427;52.204;7.202;2022-08-02T13:46:55;28.10;99.90
16627;DHT22;8427;52.204;7.202;2022-08-02T13:49:25;28.50;99.90
16627;DHT22;8427;52.204;7.202;2022-08-02T13:52:13;28.70;99.90
16627;DHT22;8427;52.204;7.202;2022-08-02T13:54:42;29.00;99.90
16627;DHT22;8427;52.204;7.202;2022-08-02T13:57:10;29.10;99.90
16627;DHT22;8427;52.204;7.202;2022-08-02T13:59:38;29.20;99.90
16627;DHT22;8427;52.204;7.202;2022-08-02T14:02:24;29.20;99.90
16627;DHT22;8427;52.204;7.202;2022-08-02T14:04:55;29.20;99.90
16627;DHT22;8427;52.204;7.202;2022-08-02T14:07:23;29.10;99.90
16627;DHT22;8427;52.204;7.202;2022-08-02T14:09:51;29.00;99.90
16627;DHT22;8427;52.204;7.202;2022-08-02T14:12:19;28.90;99.90
16627;DHT22;8427;52.204;7.202;2022-08-02T14:14:47;28.90;99.90
16627;DHT22;8427;52.204;7.202;2022-08-02T14:17:16;28.90;99.90
16627;DHT22;8427;52.204;7.202;2022-08-02T14:19:44;28.80;99.90
16627;DHT22;8427;52.204;7.202;2022-08-02T14:22:14;28.90;99.90
16627;DHT22;8427;52.204;7.202;2022-08-02T14:24:42;29.00;99.90
16627;DHT22;8427;52.204;7.202;2022-08-02T14:27:10;28.80;99.90
16627;DHT22;8427;52.204;7.202;2022-08-02T14:29:39;28.80;99.90
16627;DHT22;8427;52.204;7.202;2022-08-02T14:32:07;28.90;99.90
16627;DHT22;8427;52.204;7.202;2022-08-02T14:34:36;28.80;99.90
16627;DHT22;8427;52.204;7.202;2022-08-02T14:37:04;28.90;99.90
16627;DHT22;8427;52.204;7.202;2022-08-02T14:39:33;28.70;99.90
16627;DHT22;8427;52.204;7.202;2022-08-02T14:42:21;28.50;99.90
16627;DHT22;8427;52.204;7.202;2022-08-02T14:44:50;28.40;99.90
16627;DHT22;8427;52.204;7.202;2022-08-02T14:47:18;28.60;99.90
16627;DHT22;8427;52.204;7.202;2022-08-02T14:49:46;28.70;99.90
16627;DHT22;8427;52.204;7.202;2022-08-02T14:52:16;28.70;99.90
16627;DHT22;8427;52.204;7.202;2022-08-02T14:54:46;29.00;99.90
16627;DHT22;8427;52.204;7.202;2022-08-02T14:57:15;29.30;99.90
16627;DHT22;8427;52.204;7.202;2022-08-02T14:59:43;29.50;99.90
16627;DHT22;8427;52.204;7.202;2022-08-02T15:02:11;29.70;99.90
16627;DHT22;8427;52.204;7.202;2022-08-02T15:04:40;29.70;99.90
16627;DHT22;8427;52.204;7.202;2022-08-02T15:07:10;29.50;99.90
16627;DHT22;8427;52.204;7.202;2022-08-02T15:09:39;29.50;99.90
16627;DHT22;8427;52.204;7.202;2022-08-02T15:12:09;29.50;99.90
16627;DHT22;8427;52.204;7.202;2022-08-02T15:14:39;29.50;99.90
16627;DHT22;8427;52.204;7.202;2022-08-02T15:17:08;29.60;99.90
16627;DHT22;8427;52.204;7.202;2022-08-02T15:19:37;29.60;99.90
16627;DHT22;8427;52.204;7.202;2022-08-02T15:22:26;29.60;99.90
16627;DHT22;8427;52.204;7.202;2022-08-02T15:24:56;29.60;99.90
16627;DHT22;8427;52.204;7.202;2022-08-02T15:27:26;29.40;99.90
16627;DHT22;8427;52.204;7.202;2022-08-02T15:29:54;29.30;99.90
16627;DHT22;8427;52.204;7.202;2022-08-02T15:32:27;29.30;99.90
16627;DHT22;8427;52.204;7.202;2022-08-02T15:34:55;29.40;99.90
16627;DHT22;8427;52.204;7.202;2022-08-02T15:37:23;29.20;99.90
16627;DHT22;8427;52.204;7.202;2022-08-02T15:39:57;29.20;99.90
16627;DHT22;8427;52.204;7.202;2022-08-02T15:42:26;29.40;99.90
16627;DHT22;8427;52.204;7.202;2022-08-02T15:44:56;29.40;99.90
16627;DHT22;8427;52.204;7.202;2022-08-02T15:47:25;29.30;99.90
16627;DHT22;8427;52.204;7.202;2022-08-02T15:49:53;29.30;99.90
16627;DHT22;8427;52.204;7.202;2022-08-02T15:52:21;29.40;99.90
16627;DHT22;8427;52.204;7.202;2022-08-02T15:54:49;29.50;99.90
16627;DHT22;8427;52.204;7.202;2022-08-02T15:57:17;29.60;99.90
16627;DHT22;8427;52.204;7.202;2022-08-02T15:59:47;29.60;99.90
16627;DHT22;8427;52.204;7.202;2022-08-02T16:02:15;29.30;99.90
16627;DHT22;8427;52.204;7.202;2022-08-02T16:04:45;29.00;99.90
16627;DHT22;8427;52.204;7.202;2022-08-02T16:07:13;28.80;99.90
16627;DHT22;8427;52.204;7.202;2022-08-02T16:09:41;28.70;99.90
16627;DHT22;8427;52.204;7.202;2022-08-02T16:12:10;28.90;99.90
16627;DHT22;8427;52.204;7.202;2022-08-02T16:14:38;29.10;99.90
16627;DHT22;8427;52.204;7.202;2022-08-02T16:17:08;29.10;99.90
16627;DHT22;8427;52.204;7.202;2022-08-02T16:19:36;29.20;99.90